Time;durP1;ratioP1;P1;durP2;ratioP2;P2;SDS_P1;SDS_P2;PMS_P1;PMS_P2;Temp;Humidity;BMP_temperature;BMP_pressure;BME280_temperature;BME280_humidity;BME280_pressure;Samples;Min_cycle;Max_cycle;Signal;HPM_P1;HPM_P2
2023/10/16 00:04:36;;;;;;;;;;;;;;;-144.32;100.00;68061.97;10330152;28;19970;-80
2023/10/16 00:09:39;;;;;;;;;;;;;;;-144.32;100.00;68061.97;10310741;28;19930;-83
2023/10/16 00:14:41;;;;;;;;;;;;;;;-144.32;100.00;68061.97;10313025;28;19964;-78
2023/10/16 00:19:44;;;;;;;;;;;;;;;-144.32;100.00;68061.97;10318905;28;19922;-79
2023/10/16 00:24:47;;;;;;;;;;;;;;;-144.32;100.00;68061.97;10322270;28;19929;-84
2023/10/16 00:29:48;;;;;;;;;;;;;;;-144.32;100.00;68061.97;10316423;28;19926;-81
2023/10/16 00:34:49;;;;;;;;;;;;;;;-144.32;100.00;68061.97;10306779;28;19925;-79
2023/10/16 00:39:49;;;;;;;;;;;;;;;-144.32;100.00;68061.97;10299029;28;19948;-79
2023/10/16 00:44:56;;;;;;;;;;;;;;;-144.32;100.00;68061.97;10275459;28;19925;-79
2023/10/16 00:50:00;;;;;;;;;;;;;;;-144.32;100.00;68061.97;10289092;28;20004;-77
2023/10/16 00:55:00;;;;;;;;;;;;;;;-144.32;100.00;68061.97;10299845;28;19975;-78
2023/10/16 01:00:02;;;;;;;;;;;;;;;-144.32;100.00;68061.97;10309358;28;19937;-77
2023/10/16 01:05:04;;;;;;;;;;;;;;;-144.32;100.00;68061.97;10307153;28;20329;-76
2023/10/16 01:10:10;;;;;;;;;;;;;;;-144.32;100.00;68061.97;10312999;28;20507;-76
2023/10/16 01:15:11;;;;;;;;;;;;;;;-144.32;100.00;68061.97;10275901;28;19991;-77
2023/10/16 01:20:12;;;;;;;;;;;;;;;-144.32;100.00;68061.97;10300834;28;19926;-79
2023/10/16 01:25:13;;;;;;;;;;;;;;;-144.32;100.00;68061.97;10307155;28;19932;-76
2023/10/16 01:30:17;;;;;;;;;;;;;;;-144.32;100.00;68061.97;10304101;28;19949;-77
2023/10/16 01:35:18;;;;;;;;;;;;;;;-144.32;100.00;68061.97;10304545;28;19925;-76
2023/10/16 01:45:23;;;;;;;;;;;;;;;-144.32;100.00;68061.97;10282486;28;20373;-81
2023/10/16 01:50:26;;;;;;;;;;;;;;;-144.32;100.00;68061.97;10297786;28;19926;-79
2023/10/16 01:55:27;;;;;;;;;;;;;;;-144.32;100.00;68061.97;10297986;28;19922;-78
2023/10/16 02:00:34;;;;;;;;;;;;;;;-144.32;100.00;68061.97;10289177;28;19929;-77
2023/10/16 02:05:34;;;;;;;;;;;;;;;-144.32;100.00;68061.97;10303361;28;20020;-76
2023/10/16 02:10:36;;;;;;;;;;;;;;;-144.32;100.00;68061.97;10298995;28;19926;-77
2023/10/16 02:15:36;;;;;;;;;;;;;;;-144.32;100.00;68061.97;10300033;28;19932;-76
2023/10/16 02:20:38;;;;;;;;;;;;;;;-144.32;100.00;68061.97;10305817;28;19936;-77
2023/10/16 02:25:38;;;;;;;;;;;;;;;-144.32;100.00;68061.97;10300593;28;19961;-77
2023/10/16 02:30:41;;;;;;;;;;;;;;;-144.32;100.00;68061.97;10292231;28;19944;-78
2023/10/16 02:35:42;;;;;;;;;;;;;;;-144.32;100.00;68061.97;10288240;28;19952;-80
2023/10/16 02:40:50;;;;;;;;;;;;;;;-144.32;100.00;68061.97;10301839;28;19930;-81
2023/10/16 02:45:52;;;;;;;;;;;;;;;-144.32;100.00;68061.97;10306261;28;20008;-86
2023/10/16 02:50:59;;;;;;;;;;;;;;;-144.32;100.00;68061.97;10302292;28;20354;-83
2023/10/16 02:56:08;;;;;;;;;;;;;;;-144.32;100.00;68061.97;10306090;28;19957;-78
2023/10/16 03:01:18;;;;;;;;;;;;;;;-144.32;100.00;68061.97;10286893;28;19972;-76
2023/10/16 03:06:18;;;;;;;;;;;;;;;-144.32;100.00;68061.97;10302228;28;19948;-78
2023/10/16 03:11:20;;;;;;;;;;;;;;;-144.32;100.00;68061.97;10308669;28;19933;-76
2023/10/16 03:16:26;;;;;;;;;;;;;;;-144.32;100.00;68061.97;10281264;28;19996;-81
2023/10/16 03:21:27;;;;;;;;;;;;;;;-144.32;100.00;68061.97;10293640;28;20040;-76
2023/10/16 03:26:28;;;;;;;;;;;;;;;-144.32;100.00;68061.97;10295250;28;19933;-77
2023/10/16 03:31:29;;;;;;;;;;;;;;;-144.32;100.00;68061.97;10314268;28;19973;-78
2023/10/16 03:36:30;;;;;;;;;;;;;;;-144.32;100.00;68061.97;10297658;28;20288;-82
2023/10/16 03:41:39;;;;;;;;;;;;;;;-144.32;100.00;68061.97;10304204;28;19922;-80
2023/10/16 03:46:40;;;;;;;;;;;;;;;-144.32;100.00;68061.97;10307620;28;21088;-75
2023/10/16 03:51:40;;;;;;;;;;;;;;;-144.32;100.00;68061.97;10305746;28;19931;-75
2023/10/16 03:56:40;;;;;;;;;;;;;;;-144.32;100.00;68061.97;10308799;28;19930;-77
2023/10/16 04:01:44;;;;;;;;;;;;;;;-144.32;100.00;68061.97;10329711;28;19933;-77
2023/10/16 04:06:45;;;;;;;;;;;;;;;-144.32;100.00;68061.97;10341852;28;19929;-78
2023/10/16 04:11:54;;;;;;;;;;;;;;;-144.32;100.00;68061.97;10337580;28;19922;-80
2023/10/16 04:16:54;;;;;;;;;;;;;;;-144.32;100.00;68061.97;10366883;28;19909;-87
2023/10/16 04:21:57;;;;;;;;;;;;;;;-144.32;100.00;68061.97;10343422;28;19922;-76
2023/10/16 04:32:19;;;;;;;;;;;;;;;-144.32;100.00;68061.97;10314392;28;19926;-78
2023/10/16 04:37:29;;;;;;;;;;;;;;;-144.32;100.00;68061.97;10344500;28;20346;-80
2023/10/16 04:58:27;;;;;;;;;;;;;;;-144.32;100.00;68061.97;10300381;28;20004;-78
2023/10/16 05:03:23;;;;;;;;;;;;;;;-144.32;100.00;68061.97;10313329;28;19926;-81
2023/10/16 05:10:12;;;;;;;;;;;;;;;-144.32;100.00;68061.97;10302916;28;19970;-81
2023/10/16 06:17:37;;;;;;;;;;;;;;;-144.32;100.00;68061.97;10306742;28;19969;-78
2023/10/16 06:22:38;;;;;;;;;;;;;;;-144.32;100.00;68061.97;10303620;28;19925;-78
2023/10/16 06:27:41;;;;;;;;;;;;;;;-144.32;100.00;68061.97;10320896;28;20859;-78
2023/10/16 06:32:41;;;;;;;;;;;;;;;-144.32;100.00;68061.97;10306465;28;20392;-78
2023/10/16 06:37:51;;;;;;;;;;;;;;;-144.32;100.00;68061.97;10305205;28;19936;-79
2023/10/16 06:43:09;;;;;;;;;;;;;;;-144.32;100.00;68061.97;10301614;28;19981;-78
2023/10/16 06:48:15;;;;;;;;;;;;;;;-144.32;100.00;68061.97;10276259;28;19983;-78
2023/10/16 06:53:15;;;;;;;;;;;;;;;-144.32;100.00;68061.97;10294735;28;19922;-76
2023/10/16 06:58:18;;;;;;;;;;;;;;;-144.32;100.00;68061.97;10298198;28;20530;-77
2023/10/16 07:03:20;;;;;;;;;;;;;;;-144.32;100.00;68061.97;10295835;28;19933;-78
2023/10/16 07:08:22;;;;;;;;;;;;;;;-144.32;100.00;68061.97;10294853;28;20025;-79
2023/10/16 07:13:29;;;;;;;;;;;;;;;-144.32;100.00;68061.97;10295088;28;20012;-76
2023/10/16 07:18:32;;;;;;;;;;;;;;;-144.32;100.00;68061.97;10295716;28;19980;-77
2023/10/16 07:23:34;;;;;;;;;;;;;;;-144.32;100.00;68061.97;10298982;28;20020;-77
2023/10/16 07:28:36;;;;;;;;;;;;;;;-144.32;100.00;68061.97;10292419;28;19925;-77
2023/10/16 07:33:36;;;;;;;;;;;;;;;-144.32;100.00;68061.97;10298874;28;20441;-77
2023/10/16 07:38:40;;;;;;;;;;;;;;;-144.32;100.00;68061.97;10293444;28;19925;-78
2023/10/16 07:43:45;;;;;;;;;;;;;;;-144.32;100.00;68061.97;10297165;28;19937;-75
2023/10/16 07:48:50;;;;;;;;;;;;;;;-144.32;100.00;68061.97;10295065;28;19925;-77
2023/10/16 07:53:51;;;;;;;;;;;;;;;-144.32;100.00;68061.97;10293040;28;19930;-77
2023/10/16 07:58:56;;;;;;;;;;;;;;;-144.32;100.00;68061.97;10287095;28;19926;-76
2023/10/16 08:03:56;;;;;;;;;;;;;;;-144.32;100.00;68061.97;10263912;28;20005;-78
2023/10/16 08:14:18;;;;;;;;;;;;;;;-144.32;100.00;68061.97;10261994;28;19984;-77
2023/10/16 08:19:24;;;;;;;;;;;;;;;-144.32;100.00;68061.97;10293121;28;20333;-77
2023/10/16 08:24:24;;;;;;;;;;;;;;;-144.32;100.00;68061.97;10298880;28;19932;-77
2023/10/16 08:29:34;;;;;;;;;;;;;;;-144.32;100.00;68061.97;10292456;28;19922;-82
2023/10/16 08:34:35;;;;;;;;;;;;;;;-144.32;100.00;68061.97;10298071;28;19929;-78
2023/10/16 08:39:44;;;;;;;;;;;;;;;-144.32;100.00;68061.97;10280497;28;19926;-78
2023/10/16 08:50:17;;;;;;;;;;;;;;;-144.32;100.00;68061.97;10298252;28;19937;-77
2023/10/16 08:55:18;;;;;;;;;;;;;;;-144.32;100.00;68061.97;10292498;28;20024;-76
2023/10/16 09:00:23;;;;;;;;;;;;;;;-144.32;100.00;68061.97;10296590;28;19926;-77
2023/10/16 09:05:23;;;;;;;;;;;;;;;-144.32;100.00;68061.97;10283146;28;19925;-80
2023/10/16 09:10:24;;;;;;;;;;;;;;;-144.32;100.00;68061.97;10306439;28;19933;-81
2023/10/16 09:15:25;;;;;;;;;;;;;;;-144.32;100.00;68061.97;10290826;28;20319;-78
2023/10/16 09:20:40;;;;;;;;;;;;;;;-144.32;100.00;68061.97;10307772;28;19932;-78
2023/10/16 09:25:45;;;;;;;;;;;;;;;-144.32;100.00;68061.97;10312335;28;19980;-78
2023/10/16 09:30:46;;;;;;;;;;;;;;;-144.32;100.00;68061.97;10299928;28;19922;-78
2023/10/16 09:35:46;;;;;;;;;;;;;;;-144.32;100.00;68061.97;10312155;28;20750;-79
2023/10/16 09:40:58;;;;;;;;;;;;;;;-144.32;100.00;68061.97;10302502;28;19926;-77
2023/10/16 09:51:18;;;;;;;;;;;;;;;-144.32;100.00;68061.97;10309216;28;20495;-81
2023/10/16 09:56:23;;;;;;;;;;;;;;;-144.32;100.00;68061.97;10285594;28;19925;-82
2023/10/16 10:01:29;;;;;;;;;;;;;;;-144.32;100.00;68061.97;10297781;28;19993;-83
2023/10/16 10:06:35;;;;;;;;;;;;;;;-144.32;100.00;68061.97;10296785;28;19988;-80
2023/10/16 10:12:13;;;;;;;;;;;;;;;-144.32;100.00;68061.97;10295372;28;19929;-79
2023/10/16 10:17:19;;;;;;;;;;;;;;;-144.32;100.00;68061.97;10300099;28;19933;-80
2023/10/16 10:22:27;;;;;;;;;;;;;;;-144.32;100.00;68061.97;10281345;28;19926;-84
2023/10/16 10:27:28;;;;;;;;;;;;;;;-144.32;100.00;68061.97;10313142;28;19933;-80
2023/10/16 10:32:32;;;;;;;;;;;;;;;-144.32;100.00;68061.97;10307272;28;19926;-81
2023/10/16 10:37:47;;;;;;;;;;;;;;;-144.32;100.00;68061.97;10315043;28;19925;-80
2023/10/16 10:42:53;;;;;;;;;;;;;;;-144.32;100.00;68061.97;10298674;28;19933;-79
2023/10/16 10:47:55;;;;;;;;;;;;;;;-144.32;100.00;68061.97;10309136;28;19989;-79
2023/10/16 10:52:55;;;;;;;;;;;;;;;-144.32;100.00;68061.97;10307267;28;19949;-77
2023/10/16 10:58:00;;;;;;;;;;;;;;;-144.32;100.00;68061.97;10292846;28;20684;-78
2023/10/16 11:03:07;;;;;;;;;;;;;;;-144.32;100.00;68061.97;10295448;28;20044;-81
2023/10/16 11:08:17;;;;;;;;;;;;;;;-144.32;100.00;68061.97;10305577;28;19925;-81
2023/10/16 11:13:21;;;;;;;;;;;;;;;-144.32;100.00;68061.97;10305075;28;19926;-80
2023/10/16 11:18:22;;;;;;;;;;;;;;;-144.32;100.00;68061.97;10313431;28;19956;-83
2023/10/16 11:23:25;;;;;;;;;;;;;;;-144.32;100.00;68061.97;10313575;28;20096;-74
2023/10/16 11:28:31;;;;;;;;;;;;;;;-144.32;100.00;68061.97;10312541;28;19925;-73
2023/10/16 11:33:44;;;;;;;;;;;;;;;-144.32;100.00;68061.97;10314050;28;19968;-75
2023/10/16 11:38:44;;;;;;;;;;;;;;;-144.32;100.00;68061.97;10309003;28;20409;-75
2023/10/16 11:43:51;;;;;;;;;;;;;;;-144.32;100.00;68061.97;10285636;28;19992;-74
2023/10/16 11:48:56;;;;;;;;;;;;;;;-144.32;100.00;68061.97;10299374;28;19925;-74
2023/10/16 11:53:59;;;;;;;;;;;;;;;-144.32;100.00;68061.97;10296599;28;19999;-73
2023/10/16 11:58:59;;;;;;;;;;;;;;;-144.32;100.00;68061.97;10295178;28;19933;-74
2023/10/16 12:04:00;;;;;;;;;;;;;;;-144.32;100.00;68061.97;10300244;28;19933;-84
2023/10/16 12:09:01;;;;;;;;;;;;;;;-144.32;100.00;68061.97;10324355;28;20050;-85
2023/10/16 12:14:02;;;;;;;;;;;;;;;-144.32;100.00;68061.97;10326651;28;19921;-91
2023/10/16 12:19:05;;;;;;;;;;;;;;;-144.32;100.00;68061.97;10365686;28;19922;-89
2023/10/16 12:24:07;;;;;;;;;;;;;;;-144.32;100.00;68061.97;10364427;28;19929;-91
2023/10/16 12:29:08;;;;;;;;;;;;;;;-144.32;100.00;68061.97;10364233;28;19992;-85
2023/10/16 12:34:11;;;;;;;;;;;;;;;-144.32;100.00;68061.97;10325077;28;20336;-85
2023/10/16 12:39:25;;;;;;;;;;;;;;;-144.32;100.00;68061.97;10327473;28;19926;-86
2023/10/16 12:44:33;;;;;;;;;;;;;;;-144.32;100.00;68061.97;10311885;28;19981;-88
2023/10/16 12:49:36;;;;;;;;;;;;;;;-144.32;100.00;68061.97;10338069;28;19937;-87
2023/10/16 12:54:56;;;;;;;;;;;;;;;-144.32;100.00;68061.97;10341886;28;19945;-87
2023/10/16 13:00:15;;;;;;;;;;;;;;;-144.32;100.00;68061.97;10327549;28;19985;-86
2023/10/16 13:05:17;;;;;;;;;;;;;;;-144.32;100.00;68061.97;10322213;28;19984;-88
2023/10/16 13:10:20;;;;;;;;;;;;;;;-144.32;100.00;68061.97;10279525;28;19929;-85
2023/10/16 13:15:29;;;;;;;;;;;;;;;-144.32;100.00;68061.97;10319920;28;19922;-88
2023/10/16 13:20:36;;;;;;;;;;;;;;;-144.32;100.00;68061.97;10319952;28;19936;-94
2023/10/16 13:25:41;;;;;;;;;;;;;;;-144.32;100.00;68061.97;10320277;28;19925;-76
2023/10/16 13:30:41;;;;;;;;;;;;;;;-144.32;100.00;68061.97;10315434;28;19926;-85
2023/10/16 13:41:18;;;;;;;;;;;;;;;-144.32;100.00;68061.97;10676496;23;19930;-89
2023/10/16 13:46:20;;;;;;;;;;;;;;;-144.32;100.00;68061.97;10316560;28;19925;-88
2023/10/16 13:51:22;;;;;;;;;;;;;;;-144.32;100.00;68061.97;10336060;28;19929;-81
2023/10/16 14:01:39;;;;;;;;;;;;;;;-144.32;100.00;68061.97;10317863;28;19965;-86
2023/10/16 14:06:45;;;;;;;;;;;;;;;-144.32;100.00;68061.97;10322916;28;21017;-85
2023/10/16 14:11:50;;;;;;;;;;;;;;;-144.32;100.00;68061.97;10316302;28;20016;-88
2023/10/16 14:16:52;;;;;;;;;;;;;;;-144.32;100.00;68061.97;10312425;28;19926;-86
2023/10/16 14:21:57;;;;;;;;;;;;;;;-144.32;100.00;68061.97;10298813;28;20382;-87
2023/10/16 14:27:26;;;;;;;;;;;;;;;-144.32;100.00;68061.97;10259454;28;19922;-88
2023/10/16 14:32:34;;;;;;;;;;;;;;;-144.32;100.00;68061.97;10324976;28;20412;-85
2023/10/16 14:37:41;;;;;;;;;;;;;;;-144.32;100.00;68061.97;10331843;23;19922;-84
2023/10/16 14:54:10;;;;;;;;;;;;;;;-144.32;100.00;68061.97;10311371;28;19925;-86
2023/10/16 14:59:27;;;;;;;;;;;;;;;-144.32;100.00;68061.97;10288319;28;19923;-90
2023/10/16 15:04:32;;;;;;;;;;;;;;;-144.32;100.00;68061.97;10313096;28;19921;-85
2023/10/16 15:09:34;;;;;;;;;;;;;;;-144.32;100.00;68061.97;10313247;28;19989;-87
2023/10/16 15:14:38;;;;;;;;;;;;;;;-144.32;100.00;68061.97;10308530;28;19927;-90
2023/10/16 15:19:39;;;;;;;;;;;;;;;-144.32;100.00;68061.97;10306664;28;19926;-85
2023/10/16 15:24:40;;;;;;;;;;;;;;;-144.32;100.00;68061.97;10273998;28;19937;-90
2023/10/16 15:29:40;;;;;;;;;;;;;;;-144.32;100.00;68061.97;10264877;28;19945;-92
2023/10/16 15:39:57;;;;;;;;;;;;;;;-144.32;100.00;68061.97;10316800;28;19918;-88
2023/10/16 15:50:16;;;;;;;;;;;;;;;-144.32;100.00;68061.97;10299716;28;19926;-87
2023/10/16 15:55:17;;;;;;;;;;;;;;;-144.32;100.00;68061.97;10266733;28;20003;-83
2023/10/16 16:00:26;;;;;;;;;;;;;;;-144.32;100.00;68061.97;10298266;28;19926;-86
2023/10/16 16:05:32;;;;;;;;;;;;;;;-144.32;100.00;68061.97;10293149;28;19937;-86
2023/10/16 16:10:33;;;;;;;;;;;;;;;-144.32;100.00;68061.97;10197720;28;19953;-72
2023/10/16 16:15:36;;;;;;;;;;;;;;;-144.32;100.00;68061.97;10186949;28;19929;-82
2023/10/16 16:20:37;;;;;;;;;;;;;;;-144.32;100.00;68061.97;10218691;28;20450;-84
2023/10/16 16:25:38;;;;;;;;;;;;;;;-144.32;100.00;68061.97;10228982;28;19922;-84
2023/10/16 16:30:40;;;;;;;;;;;;;;;-144.32;100.00;68061.97;10216512;28;19985;-82
2023/10/16 16:35:41;;;;;;;;;;;;;;;-144.32;100.00;68061.97;10237567;29;19922;-83
2023/10/16 16:40:41;;;;;;;;;;;;;;;-144.32;100.00;68061.97;10295224;28;20005;-80
2023/10/16 16:45:41;;;;;;;;;;;;;;;-144.32;100.00;68061.97;10281048;28;19921;-83
2023/10/16 16:50:45;;;;;;;;;;;;;;;-144.32;100.00;68061.97;10312693;28;20015;-90
2023/10/16 16:55:46;;;;;;;;;;;;;;;-144.32;100.00;68061.97;10303352;28;19938;-87
2023/10/16 17:00:53;;;;;;;;;;;;;;;-144.32;100.00;68061.97;10296240;28;19996;-85
2023/10/16 17:05:57;;;;;;;;;;;;;;;-144.32;100.00;68061.97;10283499;28;19926;-82
2023/10/16 17:10:59;;;;;;;;;;;;;;;-144.32;100.00;68061.97;10290655;28;19926;-84
2023/10/16 17:16:07;;;;;;;;;;;;;;;-144.32;100.00;68061.97;10290148;28;19934;-85
2023/10/16 17:21:09;;;;;;;;;;;;;;;-144.32;100.00;68061.97;10283756;28;19933;-82
2023/10/16 17:26:10;;;;;;;;;;;;;;;-144.32;100.00;68061.97;10273626;28;19937;-85
2023/10/16 17:31:11;;;;;;;;;;;;;;;-144.32;100.00;68061.97;10260575;28;19925;-87
2023/10/16 17:36:12;;;;;;;;;;;;;;;-144.32;100.00;68061.97;10259950;28;20009;-86
2023/10/16 17:41:16;;;;;;;;;;;;;;;-144.32;100.00;68061.97;10277213;28;19966;-84
2023/10/16 17:46:19;;;;;;;;;;;;;;;-144.32;100.00;68061.97;10256522;28;19933;-83
2023/10/16 17:51:25;;;;;;;;;;;;;;;-144.32;100.00;68061.97;10261198;28;20147;-86
2023/10/16 17:56:27;;;;;;;;;;;;;;;-144.32;100.00;68061.97;10203778;28;19926;-83
2023/10/16 18:01:30;;;;;;;;;;;;;;;-144.32;100.00;68061.97;10196338;28;19933;-83
2023/10/16 18:06:32;;;;;;;;;;;;;;;-144.32;100.00;68061.97;10202579;28;19930;-84
2023/10/16 18:11:38;;;;;;;;;;;;;;;-144.32;100.00;68061.97;10212565;29;19937;-84
2023/10/16 18:16:39;;;;;;;;;;;;;;;-144.32;100.00;68061.97;10219831;28;19990;-83
2023/10/16 18:21:40;;;;;;;;;;;;;;;-144.32;100.00;68061.97;10224692;29;19937;-86
2023/10/16 18:26:41;;;;;;;;;;;;;;;-144.32;100.00;68061.97;10218366;28;19930;-85
2023/10/16 18:31:41;;;;;;;;;;;;;;;-144.32;100.00;68061.97;10221551;28;19949;-85
2023/10/16 18:36:52;;;;;;;;;;;;;;;-144.32;100.00;68061.97;10217296;28;19954;-88
2023/10/16 18:41:53;;;;;;;;;;;;;;;-144.32;100.00;68061.97;10227773;29;19950;-83
2023/10/16 18:46:53;;;;;;;;;;;;;;;-144.32;100.00;68061.97;10216678;28;20731;-83
2023/10/16 18:51:57;;;;;;;;;;;;;;;-144.32;100.00;68061.97;10212931;28;20546;-86
2023/10/16 18:56:57;;;;;;;;;;;;;;;-144.32;100.00;68061.97;10278091;28;19973;-86
2023/10/16 19:01:58;;;;;;;;;;;;;;;-144.32;100.00;68061.97;10244925;28;20005;-83
2023/10/16 19:07:00;;;;;;;;;;;;;;;-144.32;100.00;68061.97;10270546;28;19926;-82
2023/10/16 19:12:03;;;;;;;;;;;;;;;-144.32;100.00;68061.97;10273008;28;20375;-81
2023/10/16 19:17:05;;;;;;;;;;;;;;;-144.32;100.00;68061.97;10256070;28;19981;-84
2023/10/16 19:22:05;;;;;;;;;;;;;;;-144.32;100.00;68061.97;10231176;28;19930;-84
2023/10/16 19:27:08;;;;;;;;;;;;;;;-144.32;100.00;68061.97;10231488;28;19930;-78
2023/10/16 19:32:08;;;;;;;;;;;;;;;-144.32;100.00;68061.97;10226467;29;19930;-82
2023/10/16 19:37:08;;;;;;;;;;;;;;;-144.32;100.00;68061.97;10214328;28;19935;-84
2023/10/16 19:42:12;;;;;;;;;;;;;;;-144.32;100.00;68061.97;10243157;28;19949;-85
2023/10/16 19:47:12;;;;;;;;;;;;;;;-144.32;100.00;68061.97;10277083;28;19929;-86
2023/10/16 19:52:21;;;;;;;;;;;;;;;-144.32;100.00;68061.97;10276314;28;19929;-82
2023/10/16 19:57:22;;;;;;;;;;;;;;;-144.32;100.00;68061.97;10295273;28;19989;-81
2023/10/16 20:02:22;;;;;;;;;;;;;;;-144.32;100.00;68061.97;10309889;28;20287;-83
2023/10/16 20:12:58;;;;;;;;;;;;;;;-144.32;100.00;68061.97;10312947;28;19930;-85
2023/10/16 20:17:59;;;;;;;;;;;;;;;-144.32;100.00;68061.97;10242656;29;20029;-84
2023/10/16 20:23:03;;;;;;;;;;;;;;;-144.32;100.00;68061.97;10265010;29;19998;-88
2023/10/16 20:28:05;;;;;;;;;;;;;;;-144.32;100.00;68061.97;10292692;28;19961;-80
2023/10/16 20:33:16;;;;;;;;;;;;;;;-144.32;100.00;68061.97;10279251;28;19922;-79
2023/10/16 20:38:17;;;;;;;;;;;;;;;-144.32;100.00;68061.97;10274187;28;20326;-80
2023/10/16 20:43:21;;;;;;;;;;;;;;;-144.32;100.00;68061.97;10229472;28;19932;-81
2023/10/16 20:48:21;;;;;;;;;;;;;;;-144.32;100.00;68061.97;10276307;28;19941;-84
2023/10/16 21:03:40;;;;;;;;;;;;;;;-144.32;100.00;68061.97;10286095;28;19922;-85
2023/10/16 21:08:45;;;;;;;;;;;;;;;-144.32;100.00;68061.97;10286408;28;19940;-81
2023/10/16 21:36:09;;;;;;;;;;;;;;;-144.32;100.00;68061.97;10241157;28;20507;-81
2023/10/16 21:41:10;;;;;;;;;;;;;;;-144.32;100.00;68061.97;10280245;28;19926;-82
2023/10/16 21:46:12;;;;;;;;;;;;;;;-144.32;100.00;68061.97;10262614;28;19926;-79
2023/10/16 21:51:13;;;;;;;;;;;;;;;-144.32;100.00;68061.97;10263290;28;19929;-84
2023/10/16 21:56:16;;;;;;;;;;;;;;;-144.32;100.00;68061.97;10273996;28;19933;-83
2023/10/16 22:01:16;;;;;;;;;;;;;;;-144.32;100.00;68061.97;10274430;28;19932;-84
2023/10/16 22:06:17;;;;;;;;;;;;;;;-144.32;100.00;68061.97;10286889;28;19981;-85
2023/10/16 22:11:17;;;;;;;;;;;;;;;-144.32;100.00;68061.97;10282823;28;19922;-81
2023/10/16 22:16:18;;;;;;;;;;;;;;;-144.32;100.00;68061.97;10254602;28;20347;-81
2023/10/16 22:21:20;;;;;;;;;;;;;;;-144.32;100.00;68061.97;10265219;28;20271;-83
2023/10/16 22:26:20;;;;;;;;;;;;;;;-144.32;100.00;68061.97;10243453;28;19930;-84
2023/10/16 22:31:20;;;;;;;;;;;;;;;-144.32;100.00;68061.97;10287360;28;19922;-82
2023/10/16 22:36:23;;;;;;;;;;;;;;;-144.32;100.00;68061.97;10278034;28;19930;-85
2023/10/16 22:41:23;;;;;;;;;;;;;;;-144.32;100.00;68061.97;10260762;28;19926;-84
2023/10/16 22:46:25;;;;;;;;;;;;;;;-144.32;100.00;68061.97;10257796;28;19930;-80
2023/10/16 22:51:26;;;;;;;;;;;;;;;-144.32;100.00;68061.97;10311757;28;19921;-80
2023/10/16 22:56:27;;;;;;;;;;;;;;;-144.32;100.00;68061.97;10270240;28;19926;-84
2023/10/16 23:01:28;;;;;;;;;;;;;;;-144.32;100.00;68061.97;10262317;28;19918;-84
2023/10/16 23:06:29;;;;;;;;;;;;;;;-144.32;100.00;68061.97;10277755;28;19932;-86
2023/10/16 23:11:36;;;;;;;;;;;;;;;-144.32;100.00;68061.97;10274422;28;19922;-87
2023/10/16 23:16:43;;;;;;;;;;;;;;;-144.32;100.00;68061.97;10290070;28;19982;-90
2023/10/16 23:21:43;;;;;;;;;;;;;;;-144.32;100.00;68061.97;10289147;28;20429;-86
2023/10/16 23:26:50;;;;;;;;;;;;;;;-144.32;100.00;68061.97;10284550;28;20100;-84
2023/10/16 23:31:50;;;;;;;;;;;;;;;-144.32;100.00;68061.97;10269763;28;19941;-91
2023/10/16 23:36:56;;;;;;;;;;;;;;;-144.32;100.00;68061.97;10269611;28;19929;-82
2023/10/16 23:47:33;;;;;;;;;;;;;;;-144.32;100.00;68061.97;10210286;28;19925;-83
